sensor_id;sensor_type;location;lat;lon;timestamp;P1;durP1;ratioP1;P2;durP2;ratioP2
3865;SDS011;1948;53.250;10.412;2022-08-03T00:00:26;5.70;;;5.20;;
3865;SDS011;1948;53.250;10.412;2022-08-03T00:02:53;7.50;;;5.80;;
3865;SDS011;1948;53.250;10.412;2022-08-03T00:05:20;10.40;;;4.60;;
3865;SDS011;1948;53.250;10.412;2022-08-03T00:07:47;6.70;;;5.60;;
3865;SDS011;1948;53.250;10.412;2022-08-03T00:10:17;9.83;;;5.30;;
3865;SDS011;1948;53.250;10.412;2022-08-03T00:12:46;8.50;;;5.00;;
3865;SDS011;1948;53.250;10.412;2022-08-03T00:15:16;14.33;;;5.30;;
3865;SDS011;1948;53.250;10.412;2022-08-03T00:17:43;5.30;;;4.47;;
3865;SDS011;1948;53.250;10.412;2022-08-03T00:20:19;7.70;;;5.13;;
3865;SDS011;1948;53.250;10.412;2022-08-03T00:22:51;4.70;;;4.40;;
3865;SDS011;1948;53.250;10.412;2022-08-03T00:25:18;8.50;;;5.30;;
3865;SDS011;1948;53.250;10.412;2022-08-03T00:27:45;9.67;;;5.03;;
3865;SDS011;1948;53.250;10.412;2022-08-03T00:30:13;6.30;;;5.80;;
3865;SDS011;1948;53.250;10.412;2022-08-03T00:32:42;4.97;;;4.70;;
3865;SDS011;1948;53.250;10.412;2022-08-03T00:35:10;7.23;;;4.77;;
3865;SDS011;1948;53.250;10.412;2022-08-03T00:38:00;11.13;;;5.50;;
3865;SDS011;1948;53.250;10.412;2022-08-03T00:40:30;5.90;;;5.50;;
3865;SDS011;1948;53.250;10.412;2022-08-03T00:43:00;6.40;;;5.80;;
3865;SDS011;1948;53.250;10.412;2022-08-03T00:45:32;12.83;;;5.93;;
3865;SDS011;1948;53.250;10.412;2022-08-03T00:48:04;22.97;;;5.77;;
3865;SDS011;1948;53.250;10.412;2022-08-03T00:50:55;12.53;;;5.83;;
3865;SDS011;1948;53.250;10.412;2022-08-03T00:53:23;5.87;;;5.37;;
3865;SDS011;1948;53.250;10.412;2022-08-03T00:55:50;9.90;;;5.43;;
3865;SDS011;1948;53.250;10.412;2022-08-03T00:58:19;9.37;;;4.73;;
3865;SDS011;1948;53.250;10.412;2022-08-03T01:00:49;5.43;;;5.23;;
3865;SDS011;1948;53.250;10.412;2022-08-03T01:03:19;6.57;;;5.43;;
3865;SDS011;1948;53.250;10.412;2022-08-03T01:08:52;12.27;;;5.70;;
3865;SDS011;1948;53.250;10.412;2022-08-03T01:11:50;14.67;;;5.63;;
3865;SDS011;1948;53.250;10.412;2022-08-03T01:14:32;16.33;;;6.17;;
3865;SDS011;1948;53.250;10.412;2022-08-03T01:17:14;5.30;;;4.80;;
3865;SDS011;1948;53.250;10.412;2022-08-03T01:19:51;6.50;;;5.73;;
3865;SDS011;1948;53.250;10.412;2022-08-03T01:31:17;6.50;;;5.23;;
3865;SDS011;1948;53.250;10.412;2022-08-03T01:33:55;7.10;;;5.10;;
3865;SDS011;1948;53.250;10.412;2022-08-03T01:36:32;9.60;;;4.77;;
3865;SDS011;1948;53.250;10.412;2022-08-03T01:39:08;7.07;;;5.50;;
3865;SDS011;1948;53.250;10.412;2022-08-03T01:41:40;6.33;;;5.50;;
3865;SDS011;1948;53.250;10.412;2022-08-03T01:44:25;5.87;;;5.57;;
3865;SDS011;1948;53.250;10.412;2022-08-03T01:46:57;6.67;;;5.33;;
3865;SDS011;1948;53.250;10.412;2022-08-03T01:49:26;11.70;;;5.60;;
3865;SDS011;1948;53.250;10.412;2022-08-03T01:51:56;6.07;;;5.67;;
3865;SDS011;1948;53.250;10.412;2022-08-03T01:54:31;7.73;;;5.50;;
3865;SDS011;1948;53.250;10.412;2022-08-03T01:57:03;6.43;;;5.23;;
3865;SDS011;1948;53.250;10.412;2022-08-03T01:59:36;5.47;;;5.10;;
3865;SDS011;1948;53.250;10.412;2022-08-03T02:02:04;5.43;;;5.03;;
3865;SDS011;1948;53.250;10.412;2022-08-03T02:04:54;7.70;;;5.73;;
3865;SDS011;1948;53.250;10.412;2022-08-03T02:07:27;10.60;;;5.27;;
3865;SDS011;1948;53.250;10.412;2022-08-03T02:10:03;6.10;;;5.50;;
3865;SDS011;1948;53.250;10.412;2022-08-03T02:12:32;5.83;;;5.53;;
3865;SDS011;1948;53.250;10.412;2022-08-03T02:15:00;5.83;;;5.30;;
3865;SDS011;1948;53.250;10.412;2022-08-03T02:17:32;7.50;;;5.73;;
3865;SDS011;1948;53.250;10.412;2022-08-03T02:20:05;6.70;;;6.10;;
3865;SDS011;1948;53.250;10.412;2022-08-03T02:22:34;13.43;;;5.30;;
3865;SDS011;1948;53.250;10.412;2022-08-03T02:25:06;6.60;;;6.17;;
3865;SDS011;1948;53.250;10.412;2022-08-03T02:27:38;9.07;;;5.37;;
3865;SDS011;1948;53.250;10.412;2022-08-03T02:30:17;5.33;;;5.13;;
3865;SDS011;1948;53.250;10.412;2022-08-03T02:32:47;12.87;;;6.30;;
3865;SDS011;1948;53.250;10.412;2022-08-03T02:35:21;15.10;;;6.20;;
3865;SDS011;1948;53.250;10.412;2022-08-03T02:37:54;10.93;;;5.80;;
3865;SDS011;1948;53.250;10.412;2022-08-03T02:40:27;5.70;;;5.50;;
3865;SDS011;1948;53.250;10.412;2022-08-03T02:42:58;11.17;;;6.00;;
3865;SDS011;1948;53.250;10.412;2022-08-03T02:45:29;5.90;;;5.70;;
3865;SDS011;1948;53.250;10.412;2022-08-03T02:48:01;6.20;;;5.90;;
3865;SDS011;1948;53.250;10.412;2022-08-03T02:50:30;5.87;;;5.47;;
3865;SDS011;1948;53.250;10.412;2022-08-03T02:53:00;6.67;;;6.07;;
3865;SDS011;1948;53.250;10.412;2022-08-03T02:55:32;6.80;;;6.20;;
3865;SDS011;1948;53.250;10.412;2022-08-03T02:58:08;12.83;;;5.90;;
3865;SDS011;1948;53.250;10.412;2022-08-03T03:00:37;16.53;;;6.33;;
3865;SDS011;1948;53.250;10.412;2022-08-03T03:03:08;5.40;;;5.27;;
3865;SDS011;1948;53.250;10.412;2022-08-03T03:05:37;6.67;;;5.80;;
3865;SDS011;1948;53.250;10.412;2022-08-03T03:08:22;7.87;;;5.90;;
3865;SDS011;1948;53.250;10.412;2022-08-03T03:10:54;6.60;;;6.00;;
3865;SDS011;1948;53.250;10.412;2022-08-03T03:13:28;10.90;;;5.90;;
3865;SDS011;1948;53.250;10.412;2022-08-03T03:15:58;6.10;;;5.90;;
3865;SDS011;1948;53.250;10.412;2022-08-03T03:18:27;6.93;;;6.17;;
3865;SDS011;1948;53.250;10.412;2022-08-03T03:20:59;8.60;;;6.83;;
3865;SDS011;1948;53.250;10.412;2022-08-03T03:23:28;7.43;;;5.87;;
3865;SDS011;1948;53.250;10.412;2022-08-03T03:25:59;6.37;;;5.80;;
3865;SDS011;1948;53.250;10.412;2022-08-03T03:28:27;8.03;;;6.23;;
3865;SDS011;1948;53.250;10.412;2022-08-03T03:30:59;7.00;;;6.50;;
3865;SDS011;1948;53.250;10.412;2022-08-03T03:33:26;9.37;;;6.80;;
3865;SDS011;1948;53.250;10.412;2022-08-03T03:35:56;8.63;;;7.60;;
3865;SDS011;1948;53.250;10.412;2022-08-03T03:38:26;19.97;;;6.23;;
3865;SDS011;1948;53.250;10.412;2022-08-03T03:40:59;6.40;;;6.10;;
3865;SDS011;1948;53.250;10.412;2022-08-03T03:43:26;6.10;;;5.80;;
3865;SDS011;1948;53.250;10.412;2022-08-03T03:45:54;7.33;;;6.63;;
3865;SDS011;1948;53.250;10.412;2022-08-03T03:48:24;6.73;;;6.23;;
3865;SDS011;1948;53.250;10.412;2022-08-03T03:50:53;7.70;;;6.60;;
3865;SDS011;1948;53.250;10.412;2022-08-03T03:53:23;7.97;;;6.57;;
3865;SDS011;1948;53.250;10.412;2022-08-03T03:55:51;6.47;;;6.17;;
3865;SDS011;1948;53.250;10.412;2022-08-03T03:58:27;6.70;;;6.10;;
3865;SDS011;1948;53.250;10.412;2022-08-03T04:00:55;8.73;;;6.20;;
3865;SDS011;1948;53.250;10.412;2022-08-03T04:03:22;6.80;;;6.20;;
3865;SDS011;1948;53.250;10.412;2022-08-03T04:05:49;8.80;;;6.40;;
3865;SDS011;1948;53.250;10.412;2022-08-03T04:08:35;6.43;;;6.03;;
3865;SDS011;1948;53.250;10.412;2022-08-03T04:11:27;7.47;;;6.97;;
3865;SDS011;1948;53.250;10.412;2022-08-03T04:14:05;6.33;;;5.93;;
3865;SDS011;1948;53.250;10.412;2022-08-03T04:16:38;6.27;;;6.07;;
3865;SDS011;1948;53.250;10.412;2022-08-03T04:19:19;14.87;;;6.60;;
3865;SDS011;1948;53.250;10.412;2022-08-03T04:22:01;6.00;;;5.80;;
3865;SDS011;1948;53.250;10.412;2022-08-03T04:24:37;7.27;;;6.80;;
3865;SDS011;1948;53.250;10.412;2022-08-03T04:27:35;7.20;;;6.70;;
3865;SDS011;1948;53.250;10.412;2022-08-03T04:30:05;7.20;;;6.50;;
3865;SDS011;1948;53.250;10.412;2022-08-03T04:32:36;6.30;;;5.80;;
3865;SDS011;1948;53.250;10.412;2022-08-03T04:35:10;7.57;;;6.93;;
3865;SDS011;1948;53.250;10.412;2022-08-03T04:37:39;7.33;;;6.80;;
3865;SDS011;1948;53.250;10.412;2022-08-03T04:40:12;6.63;;;6.23;;
3865;SDS011;1948;53.250;10.412;2022-08-03T04:42:48;6.20;;;5.90;;
3865;SDS011;1948;53.250;10.412;2022-08-03T04:45:16;7.20;;;6.60;;
3865;SDS011;1948;53.250;10.412;2022-08-03T04:47:46;13.13;;;6.80;;
3865;SDS011;1948;53.250;10.412;2022-08-03T04:50:13;6.17;;;5.73;;
3865;SDS011;1948;53.250;10.412;2022-08-03T04:52:46;7.00;;;6.43;;
3865;SDS011;1948;53.250;10.412;2022-08-03T04:55:25;8.10;;;6.20;;
3865;SDS011;1948;53.250;10.412;2022-08-03T04:57:57;6.60;;;5.90;;
3865;SDS011;1948;53.250;10.412;2022-08-03T05:00:25;10.10;;;6.20;;
3865;SDS011;1948;53.250;10.412;2022-08-03T05:02:55;8.73;;;6.37;;
3865;SDS011;1948;53.250;10.412;2022-08-03T05:05:22;9.90;;;6.50;;
3865;SDS011;1948;53.250;10.412;2022-08-03T05:07:49;7.63;;;6.33;;
3865;SDS011;1948;53.250;10.412;2022-08-03T05:10:20;10.97;;;6.10;;
3865;SDS011;1948;53.250;10.412;2022-08-03T05:12:47;6.27;;;5.87;;
3865;SDS011;1948;53.250;10.412;2022-08-03T05:15:19;9.70;;;5.70;;
3865;SDS011;1948;53.250;10.412;2022-08-03T05:17:52;6.40;;;6.03;;
3865;SDS011;1948;53.250;10.412;2022-08-03T05:20:19;6.30;;;5.97;;
3865;SDS011;1948;53.250;10.412;2022-08-03T05:22:46;6.03;;;5.63;;
3865;SDS011;1948;53.250;10.412;2022-08-03T05:25:12;9.40;;;6.00;;
3865;SDS011;1948;53.250;10.412;2022-08-03T05:27:46;6.30;;;5.80;;
3865;SDS011;1948;53.250;10.412;2022-08-03T05:30:13;6.27;;;5.87;;
3865;SDS011;1948;53.250;10.412;2022-08-03T05:33:02;6.00;;;5.50;;
3865;SDS011;1948;53.250;10.412;2022-08-03T05:35:29;7.97;;;5.83;;
3865;SDS011;1948;53.250;10.412;2022-08-03T05:38:24;8.20;;;5.73;;
3865;SDS011;1948;53.250;10.412;2022-08-03T05:40:59;5.97;;;5.67;;
3865;SDS011;1948;53.250;10.412;2022-08-03T05:43:46;5.80;;;5.20;;
3865;SDS011;1948;53.250;10.412;2022-08-03T05:46:21;5.20;;;5.00;;
3865;SDS011;1948;53.250;10.412;2022-08-03T05:48:50;11.10;;;5.93;;
3865;SDS011;1948;53.250;10.412;2022-08-03T05:51:22;5.33;;;5.00;;
3865;SDS011;1948;53.250;10.412;2022-08-03T05:53:49;5.40;;;4.93;;
3865;SDS011;1948;53.250;10.412;2022-08-03T05:56:20;10.13;;;5.40;;
3865;SDS011;1948;53.250;10.412;2022-08-03T05:58:50;22.87;;;4.90;;
3865;SDS011;1948;53.250;10.412;2022-08-03T06:01:25;17.90;;;5.57;;
3865;SDS011;1948;53.250;10.412;2022-08-03T06:03:54;5.30;;;5.00;;
3865;SDS011;1948;53.250;10.412;2022-08-03T06:06:21;5.60;;;5.37;;
3865;SDS011;1948;53.250;10.412;2022-08-03T06:08:48;6.07;;;5.33;;
3865;SDS011;1948;53.250;10.412;2022-08-03T06:11:15;8.53;;;5.00;;
3865;SDS011;1948;53.250;10.412;2022-08-03T06:13:42;11.13;;;5.60;;
3865;SDS011;1948;53.250;10.412;2022-08-03T06:16:10;5.37;;;5.10;;
3865;SDS011;1948;53.250;10.412;2022-08-03T06:18:41;9.17;;;4.87;;
3865;SDS011;1948;53.250;10.412;2022-08-03T06:21:11;10.70;;;5.40;;
3865;SDS011;1948;53.250;10.412;2022-08-03T06:23:42;6.53;;;5.20;;
3865;SDS011;1948;53.250;10.412;2022-08-03T06:26:21;9.33;;;5.23;;
3865;SDS011;1948;53.250;10.412;2022-08-03T06:28:53;5.23;;;4.83;;
3865;SDS011;1948;53.250;10.412;2022-08-03T06:31:21;4.67;;;4.57;;
3865;SDS011;1948;53.250;10.412;2022-08-03T06:33:58;8.73;;;5.20;;
3865;SDS011;1948;53.250;10.412;2022-08-03T06:36:46;5.80;;;5.00;;
3865;SDS011;1948;53.250;10.412;2022-08-03T06:39:17;5.50;;;5.30;;
3865;SDS011;1948;53.250;10.412;2022-08-03T06:41:45;9.13;;;4.67;;
3865;SDS011;1948;53.250;10.412;2022-08-03T06:44:12;10.77;;;4.83;;
3865;SDS011;1948;53.250;10.412;2022-08-03T06:46:39;7.97;;;4.83;;
3865;SDS011;1948;53.250;10.412;2022-08-03T06:49:07;4.47;;;4.23;;
3865;SDS011;1948;53.250;10.412;2022-08-03T06:51:34;4.37;;;4.23;;
3865;SDS011;1948;53.250;10.412;2022-08-03T06:54:23;4.27;;;4.17;;
3865;SDS011;1948;53.250;10.412;2022-08-03T06:56:50;4.03;;;3.93;;
3865;SDS011;1948;53.250;10.412;2022-08-03T06:59:22;4.73;;;4.43;;
3865;SDS011;1948;53.250;10.412;2022-08-03T07:02:09;4.40;;;4.20;;
3865;SDS011;1948;53.250;10.412;2022-08-03T07:04:45;4.80;;;4.47;;
3865;SDS011;1948;53.250;10.412;2022-08-03T07:07:17;4.63;;;4.23;;
3865;SDS011;1948;53.250;10.412;2022-08-03T07:09:47;7.80;;;4.80;;
3865;SDS011;1948;53.250;10.412;2022-08-03T07:12:25;8.30;;;4.40;;
3865;SDS011;1948;53.250;10.412;2022-08-03T07:14:56;6.10;;;4.17;;
3865;SDS011;1948;53.250;10.412;2022-08-03T07:17:29;3.93;;;3.83;;
3865;SDS011;1948;53.250;10.412;2022-08-03T07:19:58;3.73;;;3.63;;
3865;SDS011;1948;53.250;10.412;2022-08-03T07:22:26;4.17;;;3.60;;
3865;SDS011;1948;53.250;10.412;2022-08-03T07:24:56;9.80;;;3.63;;
3865;SDS011;1948;53.250;10.412;2022-08-03T07:27:25;4.00;;;3.70;;
3865;SDS011;1948;53.250;10.412;2022-08-03T07:29:58;6.90;;;3.47;;
3865;SDS011;1948;53.250;10.412;2022-08-03T07:32:25;4.20;;;3.00;;
3865;SDS011;1948;53.250;10.412;2022-08-03T07:34:53;3.40;;;3.13;;
3865;SDS011;1948;53.250;10.412;2022-08-03T07:37:25;3.10;;;2.90;;
3865;SDS011;1948;53.250;10.412;2022-08-03T07:39:55;3.93;;;3.00;;
3865;SDS011;1948;53.250;10.412;2022-08-03T07:42:23;3.33;;;3.03;;
3865;SDS011;1948;53.250;10.412;2022-08-03T07:44:56;6.43;;;2.70;;
3865;SDS011;1948;53.250;10.412;2022-08-03T07:47:25;5.03;;;2.53;;
3865;SDS011;1948;53.250;10.412;2022-08-03T07:50:00;2.83;;;2.63;;
3865;SDS011;1948;53.250;10.412;2022-08-03T07:52:31;5.90;;;2.60;;
3865;SDS011;1948;53.250;10.412;2022-08-03T07:55:14;4.20;;;2.73;;
3865;SDS011;1948;53.250;10.412;2022-08-03T07:57:46;3.27;;;3.07;;
3865;SDS011;1948;53.250;10.412;2022-08-03T08:00:29;4.03;;;2.67;;
3865;SDS011;1948;53.250;10.412;2022-08-03T08:02:56;5.80;;;2.40;;
3865;SDS011;1948;53.250;10.412;2022-08-03T08:05:26;5.50;;;2.53;;
3865;SDS011;1948;53.250;10.412;2022-08-03T08:07:53;6.77;;;2.70;;
3865;SDS011;1948;53.250;10.412;2022-08-03T08:10:22;2.37;;;2.20;;
3865;SDS011;1948;53.250;10.412;2022-08-03T08:12:49;4.67;;;2.60;;
3865;SDS011;1948;53.250;10.412;2022-08-03T08:15:21;5.00;;;2.30;;
3865;SDS011;1948;53.250;10.412;2022-08-03T08:17:52;2.77;;;2.60;;
3865;SDS011;1948;53.250;10.412;2022-08-03T08:20:27;8.57;;;2.23;;
3865;SDS011;1948;53.250;10.412;2022-08-03T08:23:04;2.67;;;2.67;;
3865;SDS011;1948;53.250;10.412;2022-08-03T08:25:53;5.30;;;2.43;;
3865;SDS011;1948;53.250;10.412;2022-08-03T08:28:20;4.63;;;2.30;;
3865;SDS011;1948;53.250;10.412;2022-08-03T08:30:58;8.20;;;2.57;;
3865;SDS011;1948;53.250;10.412;2022-08-03T08:33:26;4.80;;;2.20;;
3865;SDS011;1948;53.250;10.412;2022-08-03T08:36:13;7.67;;;2.27;;
3865;SDS011;1948;53.250;10.412;2022-08-03T08:38:41;6.13;;;2.20;;
3865;SDS011;1948;53.250;10.412;2022-08-03T08:41:12;9.13;;;1.97;;
3865;SDS011;1948;53.250;10.412;2022-08-03T08:43:43;1.67;;;1.60;;
3865;SDS011;1948;53.250;10.412;2022-08-03T08:46:12;5.40;;;2.10;;
3865;SDS011;1948;53.250;10.412;2022-08-03T08:48:49;3.80;;;2.00;;
3865;SDS011;1948;53.250;10.412;2022-08-03T08:51:20;9.50;;;2.10;;
3865;SDS011;1948;53.250;10.412;2022-08-03T08:54:12;7.43;;;2.30;;
3865;SDS011;1948;53.250;10.412;2022-08-03T08:56:43;5.80;;;3.23;;
3865;SDS011;1948;53.250;10.412;2022-08-03T08:59:18;7.27;;;2.03;;
3865;SDS011;1948;53.250;10.412;2022-08-03T09:01:47;6.10;;;4.80;;
3865;SDS011;1948;53.250;10.412;2022-08-03T09:04:16;23.67;;;2.47;;
3865;SDS011;1948;53.250;10.412;2022-08-03T09:06:48;2.00;;;1.90;;
3865;SDS011;1948;53.250;10.412;2022-08-03T09:09:36;13.17;;;2.33;;
3865;SDS011;1948;53.250;10.412;2022-08-03T09:12:25;5.70;;;2.07;;
3865;SDS011;1948;53.250;10.412;2022-08-03T09:15:26;3.60;;;1.90;;
3865;SDS011;1948;53.250;10.412;2022-08-03T09:17:59;3.83;;;2.27;;
3865;SDS011;1948;53.250;10.412;2022-08-03T09:20:32;6.10;;;2.07;;
3865;SDS011;1948;53.250;10.412;2022-08-03T09:23:04;4.70;;;2.63;;
3865;SDS011;1948;53.250;10.412;2022-08-03T09:25:56;14.83;;;2.17;;
3865;SDS011;1948;53.250;10.412;2022-08-03T09:28:32;6.63;;;2.60;;
3865;SDS011;1948;53.250;10.412;2022-08-03T09:34:10;8.27;;;2.27;;
3865;SDS011;1948;53.250;10.412;2022-08-03T09:36:49;3.47;;;2.00;;
3865;SDS011;1948;53.250;10.412;2022-08-03T09:39:24;8.63;;;2.00;;
3865;SDS011;1948;53.250;10.412;2022-08-03T09:42:11;6.40;;;2.60;;
3865;SDS011;1948;53.250;10.412;2022-08-03T09:44:44;5.70;;;2.40;;
3865;SDS011;1948;53.250;10.412;2022-08-03T09:47:26;4.37;;;1.80;;
3865;SDS011;1948;53.250;10.412;2022-08-03T09:50:00;8.80;;;2.10;;
3865;SDS011;1948;53.250;10.412;2022-08-03T09:52:31;3.67;;;2.13;;
3865;SDS011;1948;53.250;10.412;2022-08-03T09:55:15;2.30;;;1.60;;
3865;SDS011;1948;53.250;10.412;2022-08-03T09:58:08;2.97;;;1.70;;
3865;SDS011;1948;53.250;10.412;2022-08-03T10:03:32;9.90;;;2.20;;
3865;SDS011;1948;53.250;10.412;2022-08-03T10:06:22;6.73;;;1.87;;
3865;SDS011;1948;53.250;10.412;2022-08-03T10:11:40;4.47;;;2.23;;
3865;SDS011;1948;53.250;10.412;2022-08-03T10:14:12;8.87;;;2.10;;
3865;SDS011;1948;53.250;10.412;2022-08-03T10:16:45;3.07;;;2.17;;
3865;SDS011;1948;53.250;10.412;2022-08-03T10:19:13;14.03;;;2.00;;
3865;SDS011;1948;53.250;10.412;2022-08-03T10:21:41;7.30;;;3.00;;
3865;SDS011;1948;53.250;10.412;2022-08-03T10:24:19;4.50;;;2.07;;
3865;SDS011;1948;53.250;10.412;2022-08-03T10:26:52;4.07;;;2.10;;
3865;SDS011;1948;53.250;10.412;2022-08-03T10:29:27;6.73;;;2.10;;
3865;SDS011;1948;53.250;10.412;2022-08-03T10:32:08;1.67;;;1.57;;
3865;SDS011;1948;53.250;10.412;2022-08-03T10:35:18;7.83;;;1.83;;
3865;SDS011;1948;53.250;10.412;2022-08-03T10:38:03;3.37;;;2.03;;
3865;SDS011;1948;53.250;10.412;2022-08-03T10:40:37;5.17;;;2.00;;
3865;SDS011;1948;53.250;10.412;2022-08-03T10:43:19;2.13;;;1.90;;
3865;SDS011;1948;53.250;10.412;2022-08-03T10:45:50;1.93;;;1.80;;
3865;SDS011;1948;53.250;10.412;2022-08-03T10:48:24;13.77;;;2.27;;
3865;SDS011;1948;53.250;10.412;2022-08-03T10:50:54;6.03;;;2.13;;
3865;SDS011;1948;53.250;10.412;2022-08-03T10:53:34;10.20;;;2.00;;
3865;SDS011;1948;53.250;10.412;2022-08-03T10:59:55;8.53;;;2.70;;
3865;SDS011;1948;53.250;10.412;2022-08-03T11:02:12;6.80;;;2.40;;
3865;SDS011;1948;53.250;10.412;2022-08-03T11:04:40;3.97;;;1.90;;
3865;SDS011;1948;53.250;10.412;2022-08-03T11:07:27;11.10;;;1.90;;
3865;SDS011;1948;53.250;10.412;2022-08-03T11:09:54;8.93;;;1.90;;
3865;SDS011;1948;53.250;10.412;2022-08-03T11:15:01;7.00;;;2.30;;
3865;SDS011;1948;53.250;10.412;2022-08-03T11:17:32;6.30;;;2.07;;
3865;SDS011;1948;53.250;10.412;2022-08-03T11:23:13;14.00;;;2.20;;
3865;SDS011;1948;53.250;10.412;2022-08-03T11:28:34;7.20;;;2.13;;
3865;SDS011;1948;53.250;10.412;2022-08-03T11:34:15;3.90;;;1.80;;
3865;SDS011;1948;53.250;10.412;2022-08-03T11:39:57;3.13;;;2.43;;
3865;SDS011;1948;53.250;10.412;2022-08-03T11:45:01;11.47;;;2.17;;
3865;SDS011;1948;53.250;10.412;2022-08-03T11:47:35;11.73;;;1.97;;
3865;SDS011;1948;53.250;10.412;2022-08-03T11:50:16;7.00;;;2.00;;
3865;SDS011;1948;53.250;10.412;2022-08-03T11:52:47;7.23;;;2.00;;
3865;SDS011;1948;53.250;10.412;2022-08-03T11:55:16;3.67;;;1.90;;
3865;SDS011;1948;53.250;10.412;2022-08-03T11:57:47;13.80;;;1.80;;
3865;SDS011;1948;53.250;10.412;2022-08-03T12:00:36;40.23;;;2.30;;
3865;SDS011;1948;53.250;10.412;2022-08-03T12:03:05;9.37;;;2.07;;
3865;SDS011;1948;53.250;10.412;2022-08-03T12:05:38;5.20;;;2.20;;
3865;SDS011;1948;53.250;10.412;2022-08-03T12:10:58;5.03;;;1.87;;
3865;SDS011;1948;53.250;10.412;2022-08-03T12:13:38;5.93;;;1.30;;
3865;SDS011;1948;53.250;10.412;2022-08-03T12:16:28;4.50;;;1.70;;
3865;SDS011;1948;53.250;10.412;2022-08-03T12:19:03;5.47;;;1.60;;
3865;SDS011;1948;53.250;10.412;2022-08-03T12:21:32;5.23;;;1.30;;
3865;SDS011;1948;53.250;10.412;2022-08-03T12:24:00;7.83;;;2.00;;
3865;SDS011;1948;53.250;10.412;2022-08-03T12:26:41;5.73;;;2.20;;
3865;SDS011;1948;53.250;10.412;2022-08-03T12:29:24;3.43;;;1.30;;
3865;SDS011;1948;53.250;10.412;2022-08-03T12:31:53;11.00;;;1.80;;
3865;SDS011;1948;53.250;10.412;2022-08-03T12:34:21;2.63;;;1.70;;
3865;SDS011;1948;53.250;10.412;2022-08-03T12:36:49;3.40;;;1.40;;
3865;SDS011;1948;53.250;10.412;2022-08-03T12:39:22;3.70;;;1.47;;
3865;SDS011;1948;53.250;10.412;2022-08-03T12:41:52;1.40;;;1.30;;
3865;SDS011;1948;53.250;10.412;2022-08-03T12:44:33;1.60;;;1.50;;
3865;SDS011;1948;53.250;10.412;2022-08-03T12:47:04;6.50;;;2.37;;
3865;SDS011;1948;53.250;10.412;2022-08-03T12:49:48;8.93;;;1.70;;
3865;SDS011;1948;53.250;10.412;2022-08-03T12:52:19;11.10;;;1.53;;
3865;SDS011;1948;53.250;10.412;2022-08-03T12:54:57;2.93;;;1.60;;
3865;SDS011;1948;53.250;10.412;2022-08-03T12:57:41;3.90;;;1.60;;
3865;SDS011;1948;53.250;10.412;2022-08-03T13:00:15;5.37;;;1.90;;
3865;SDS011;1948;53.250;10.412;2022-08-03T13:05:56;9.87;;;1.67;;
3865;SDS011;1948;53.250;10.412;2022-08-03T13:08:24;5.60;;;2.40;;
3865;SDS011;1948;53.250;10.412;2022-08-03T13:10:51;1.37;;;1.37;;
3865;SDS011;1948;53.250;10.412;2022-08-03T13:13:36;5.00;;;1.73;;
3865;SDS011;1948;53.250;10.412;2022-08-03T13:16:04;8.20;;;1.80;;
3865;SDS011;1948;53.250;10.412;2022-08-03T13:18:31;2.63;;;1.40;;
3865;SDS011;1948;53.250;10.412;2022-08-03T13:20:59;3.40;;;1.57;;
3865;SDS011;1948;53.250;10.412;2022-08-03T13:23:26;4.83;;;1.53;;
3865;SDS011;1948;53.250;10.412;2022-08-03T13:25:53;7.17;;;2.50;;
3865;SDS011;1948;53.250;10.412;2022-08-03T13:28:21;3.90;;;1.43;;
3865;SDS011;1948;53.250;10.412;2022-08-03T13:30:53;3.30;;;1.40;;
3865;SDS011;1948;53.250;10.412;2022-08-03T13:33:22;7.73;;;1.33;;
3865;SDS011;1948;53.250;10.412;2022-08-03T13:35:49;7.87;;;1.77;;
3865;SDS011;1948;53.250;10.412;2022-08-03T13:38:16;13.87;;;2.20;;
3865;SDS011;1948;53.250;10.412;2022-08-03T13:40:46;4.87;;;2.10;;
3865;SDS011;1948;53.250;10.412;2022-08-03T13:43:15;10.60;;;1.33;;
3865;SDS011;1948;53.250;10.412;2022-08-03T13:45:42;10.10;;;1.60;;
3865;SDS011;1948;53.250;10.412;2022-08-03T13:48:16;1.60;;;1.50;;
3865;SDS011;1948;53.250;10.412;2022-08-03T13:51:02;20.83;;;2.90;;
3865;SDS011;1948;53.250;10.412;2022-08-03T13:53:48;3.53;;;1.53;;
3865;SDS011;1948;53.250;10.412;2022-08-03T13:56:18;5.10;;;2.13;;
3865;SDS011;1948;53.250;10.412;2022-08-03T13:58:45;5.10;;;1.60;;
3865;SDS011;1948;53.250;10.412;2022-08-03T14:01:12;4.00;;;1.50;;
3865;SDS011;1948;53.250;10.412;2022-08-03T14:03:39;4.70;;;2.17;;
3865;SDS011;1948;53.250;10.412;2022-08-03T14:06:06;2.30;;;1.60;;
3865;SDS011;1948;53.250;10.412;2022-08-03T14:08:33;7.33;;;1.70;;
3865;SDS011;1948;53.250;10.412;2022-08-03T14:11:02;2.10;;;1.90;;
3865;SDS011;1948;53.250;10.412;2022-08-03T14:13:29;4.07;;;1.70;;
3865;SDS011;1948;53.250;10.412;2022-08-03T14:15:56;4.03;;;1.93;;
3865;SDS011;1948;53.250;10.412;2022-08-03T14:18:24;5.73;;;1.83;;
3865;SDS011;1948;53.250;10.412;2022-08-03T14:20:58;4.77;;;1.30;;
3865;SDS011;1948;53.250;10.412;2022-08-03T14:23:34;12.60;;;1.57;;
3865;SDS011;1948;53.250;10.412;2022-08-03T14:26:04;6.80;;;1.57;;
3865;SDS011;1948;53.250;10.412;2022-08-03T14:28:34;2.83;;;1.20;;
3865;SDS011;1948;53.250;10.412;2022-08-03T14:31:02;2.50;;;1.50;;
3865;SDS011;1948;53.250;10.412;2022-08-03T14:33:41;5.83;;;2.20;;
3865;SDS011;1948;53.250;10.412;2022-08-03T14:36:08;1.83;;;1.37;;
3865;SDS011;1948;53.250;10.412;2022-08-03T14:38:35;4.63;;;1.60;;
3865;SDS011;1948;53.250;10.412;2022-08-03T14:41:02;2.80;;;1.53;;
3865;SDS011;1948;53.250;10.412;2022-08-03T14:43:29;15.10;;;2.03;;
3865;SDS011;1948;53.250;10.412;2022-08-03T14:45:59;6.63;;;1.80;;
3865;SDS011;1948;53.250;10.412;2022-08-03T14:48:28;5.13;;;1.50;;
3865;SDS011;1948;53.250;10.412;2022-08-03T14:51:18;8.53;;;2.20;;
3865;SDS011;1948;53.250;10.412;2022-08-03T14:53:45;2.70;;;1.70;;
3865;SDS011;1948;53.250;10.412;2022-08-03T14:56:14;3.87;;;1.67;;
3865;SDS011;1948;53.250;10.412;2022-08-03T14:58:41;4.30;;;1.67;;
3865;SDS011;1948;53.250;10.412;2022-08-03T15:01:10;2.40;;;1.60;;
3865;SDS011;1948;53.250;10.412;2022-08-03T15:03:57;4.13;;;1.77;;
3865;SDS011;1948;53.250;10.412;2022-08-03T15:06:24;1.67;;;1.40;;
3865;SDS011;1948;53.250;10.412;2022-08-03T15:08:51;6.77;;;2.00;;
3865;SDS011;1948;53.250;10.412;2022-08-03T15:11:40;9.23;;;2.07;;
3865;SDS011;1948;53.250;10.412;2022-08-03T15:14:10;5.53;;;1.80;;
3865;SDS011;1948;53.250;10.412;2022-08-03T15:16:39;1.80;;;1.70;;
3865;SDS011;1948;53.250;10.412;2022-08-03T15:19:09;2.00;;;1.80;;
3865;SDS011;1948;53.250;10.412;2022-08-03T15:21:56;2.87;;;1.50;;
3865;SDS011;1948;53.250;10.412;2022-08-03T15:24:26;3.80;;;1.63;;
3865;SDS011;1948;53.250;10.412;2022-08-03T15:26:55;2.57;;;1.33;;
3865;SDS011;1948;53.250;10.412;2022-08-03T15:29:22;11.93;;;2.03;;
3865;SDS011;1948;53.250;10.412;2022-08-03T15:32:09;3.23;;;1.73;;
3865;SDS011;1948;53.250;10.412;2022-08-03T15:34:35;4.10;;;1.70;;
3865;SDS011;1948;53.250;10.412;2022-08-03T15:37:02;7.70;;;2.23;;
3865;SDS011;1948;53.250;10.412;2022-08-03T15:39:41;6.23;;;1.67;;
3865;SDS011;1948;53.250;10.412;2022-08-03T15:42:26;2.27;;;1.67;;
3865;SDS011;1948;53.250;10.412;2022-08-03T15:44:56;5.50;;;1.37;;
3865;SDS011;1948;53.250;10.412;2022-08-03T15:47:24;2.03;;;1.93;;
3865;SDS011;1948;53.250;10.412;2022-08-03T15:49:56;9.30;;;1.90;;
3865;SDS011;1948;53.250;10.412;2022-08-03T15:52:23;5.03;;;2.67;;
3865;SDS011;1948;53.250;10.412;2022-08-03T15:54:52;8.13;;;1.80;;
3865;SDS011;1948;53.250;10.412;2022-08-03T15:57:19;9.93;;;2.40;;
3865;SDS011;1948;53.250;10.412;2022-08-03T15:59:49;8.27;;;1.80;;
3865;SDS011;1948;53.250;10.412;2022-08-03T16:02:18;4.83;;;1.80;;
3865;SDS011;1948;53.250;10.412;2022-08-03T16:04:45;11.10;;;2.10;;
3865;SDS011;1948;53.250;10.412;2022-08-03T16:07:12;15.80;;;2.30;;
3865;SDS011;1948;53.250;10.412;2022-08-03T16:09:41;3.70;;;1.83;;
3865;SDS011;1948;53.250;10.412;2022-08-03T16:12:12;8.13;;;2.00;;
3865;SDS011;1948;53.250;10.412;2022-08-03T16:14:42;7.33;;;2.77;;
3865;SDS011;1948;53.250;10.412;2022-08-03T16:17:18;6.73;;;1.87;;
3865;SDS011;1948;53.250;10.412;2022-08-03T16:19:46;8.00;;;2.23;;
3865;SDS011;1948;53.250;10.412;2022-08-03T16:22:20;4.40;;;2.37;;